Buoy 43519

sailwx.info

Track history (hours):
 
Tides and Currents Weather Stations Pressure Air Temp Water Temp Dewpoint Dewpoint Depression Visibility Wind Speed Wind Dir Waves Ship Positions

Drifting buoy 43519

Last reported at 2015-Oct-06 05:00 UTC. Time now 2016-Dec-04 16:16 UTC.
Position N 27°10' W 117°12'.
Warning: this ship's position is years out of date!

Barometer 1014.9 mb
Water temperature 24.4 ° C

Date/timePositionNaut miles runAvg speedWind from/ knotsBaromVisibWave heightAir tempDewpointWater temp
2015-Oct-06 05:00N 27°10' W 117°12'1 0.7 1014.9 24.4
2015-Oct-06 03:00N 27°11' W 117°11'0 0.0 1014.2 24.5
2015-Oct-06 02:00N 27°11' W 117°11'0 0.0 1013.7 24.5
2015-Oct-06 01:00N 27°11' W 117°11'0 0.0 1013.2 24.9
2015-Oct-06 00:00N 27°11' W 117°11'1 1.0 1012.7 25.2
2015-Oct-05 23:00N 27°11' W 117°10'0 0.0 1012.5 25.2
2015-Oct-05 22:00N 27°11' W 117°10'1 0.7 1012.5 25.0
2015-Oct-05 20:00N 27°13' W 117°10'0 0.1 1012.7 24.9
2015-Oct-05 18:00N 27°13' W 117°09'0 0.0 1013.2 24.3
2015-Oct-05 17:00N 27°13' W 117°09'1 0.3 1013.2 24.2
2015-Oct-05 13:00N 27°14' W 117°09'2 0.2 1010.4 24.2
2015-Oct-05 02:00N 27°16' W 117°08'5 0.4 1007.0 24.2
2015-Oct-04 14:00N 27°20' W 117°06'1 0.3 1006.0 24.2
2015-Oct-04 11:00N 27°21' W 117°06'5 0.4 1004.7 24.2
2015-Oct-03 20:00N 27°25' W 117°03'0 0.0 1006.2 24.3
2015-Oct-03 19:00N 27°25' W 117°03'0 0.0 1007.0 24.3
2015-Oct-03 14:00N 27°25' W 117°03'3 0.2 1006.9 24.2
2015-Oct-03 03:00N 27°28' W 117°02'0 0.0 1009.9 24.4
2015-Oct-03 02:00N 27°28' W 117°02'1 0.6 1009.7 24.4
2015-Oct-03 01:00N 27°28' W 117°03'6 0.8 1009.9 24.5
2015-Oct-02 17:00N 27°33' W 116°60'0 0.1 1013.0 24.4
2015-Oct-02 13:00N 27°33' W 116°60'5 0.3 1012.0 24.4
2015-Oct-01 23:00N 27°38' W 116°59'2 0.4 1011.5 24.7
2015-Oct-01 18:00N 27°40' W 116°59'0 0.0 1013.5 24.5
2015-Oct-01 17:00N 27°40' W 116°59'2 0.4 1013.5 24.4
2015-Oct-01 11:00N 27°43' W 116°59'2 2.4 1010.7 24.5
2015-Oct-01 10:00N 27°45' W 116°59'0 0.0 1010.9 24.5
2015-Oct-01 05:00N 27°45' W 116°59'12 0.6 1011.2 24.5
2015-Sep-30 10:00N 27°56' W 116°59'0 0.0 1010.0 24.5
2015-Sep-30 06:00N 27°56' W 116°59'2 0.4 1011.2 24.6
2015-Sep-30 02:00N 27°58' W 116°59'4 1.3 1010.2 24.6
2015-Sep-29 23:00N 28°02' W 116°58'0 0.0 1010.5 24.7
2015-Sep-29 18:00N 28°02' W 116°58'6 1.0 1013.0 24.6
2015-Sep-29 12:00N 28°08' W 116°58'0 0.0 1010.9 24.5
2015-Sep-29 10:00N 28°08' W 116°58'2 0.2 1011.0 24.5
2015-Sep-29 00:00N 28°10' W 116°58'4 0.5 1010.4 24.8
2015-Sep-28 15:00N 28°15' W 116°58'1 0.6 1011.5 24.5
2015-Sep-28 14:00N 28°15' W 116°58'2 0.4 1011.0 24.5
2015-Sep-28 10:00N 28°17' W 116°58'3 0.7 1009.7 24.5
2015-Sep-28 05:00N 28°20' W 116°57'0 0.0 1010.2 24.5
2015-Sep-28 03:00N 28°20' W 116°57'1 0.9 1009.4 24.6
2015-Sep-28 02:00N 28°21' W 116°57'0 0.0 1009.0 24.6
2015-Sep-28 01:00N 28°21' W 116°57'3 3.4 1008.7 24.7
2015-Sep-28 00:00N 28°24' W 116°57'0 0.0 1008.5 24.8
2015-Sep-27 23:00N 28°24' W 116°57'2 0.3 1009.0 24.9
2015-Sep-27 17:00N 28°26' W 116°56'1 0.2 1010.5 24.5
2015-Sep-27 12:00N 28°27' W 116°55'4 1.2 1008.7 24.5
2015-Sep-27 09:00N 28°30' W 116°55'1 0.1 1009.0 24.5
2015-Sep-27 03:00N 28°31' W 116°55'0 0.1 1008.5 24.6
2015-Sep-27 01:00N 28°31' W 116°55'1 1.2 1008.5 24.7
2015-Sep-27 00:00N 28°32' W 116°55'0 0.0 1008.5 24.7
2015-Sep-26 23:00N 28°32' W 116°55'0 0.1 1009.0 24.8
2015-Sep-26 20:00N 28°32' W 116°55'2 0.9 1010.9 24.7
2015-Sep-26 18:00N 28°34' W 116°54'0 0.0 1011.5 24.6
2015-Sep-26 17:00N 28°34' W 116°54'3 0.9 1011.4 24.6
2015-Sep-26 14:00N 28°36' W 116°52'0 0.1 1010.2 24.5
2015-Sep-26 13:00N 28°36' W 116°52'4 0.5 1009.7 24.5
2015-Sep-26 05:00N 28°40' W 116°52'   1011.0 24.6
Track history (hours):
 
Tides and Currents Weather Stations Pressure Air Temp Water Temp Dewpoint Dewpoint Depression Visibility Wind Speed Wind Dir Waves Ship Positions

Drifting buoy 43519

Last reported at 2015-Oct-06 05:00 UTC. Time now 2016-Dec-04 16:16 UTC.
Position N 27°10' W 117°12'.
Warning: this ship's position is years out of date!

Barometer 1014.9 mb
Water temperature 24.4 ° C

Date/timePositionNaut miles runAvg speedWind from/ knotsBaromVisibWave heightAir tempDewpointWater temp
2015-Oct-06 05:00N 27°10' W 117°12'1 0.7 1014.9 24.4
2015-Oct-06 03:00N 27°11' W 117°11'0 0.0 1014.2 24.5
2015-Oct-06 02:00N 27°11' W 117°11'0 0.0 1013.7 24.5
2015-Oct-06 01:00N 27°11' W 117°11'0 0.0 1013.2 24.9
2015-Oct-06 00:00N 27°11' W 117°11'1 1.0 1012.7 25.2
2015-Oct-05 23:00N 27°11' W 117°10'0 0.0 1012.5 25.2
2015-Oct-05 22:00N 27°11' W 117°10'1 0.7 1012.5 25.0
2015-Oct-05 20:00N 27°13' W 117°10'0 0.1 1012.7 24.9
2015-Oct-05 18:00N 27°13' W 117°09'0 0.0 1013.2 24.3
2015-Oct-05 17:00N 27°13' W 117°09'1 0.3 1013.2 24.2
2015-Oct-05 13:00N 27°14' W 117°09'2 0.2 1010.4 24.2
2015-Oct-05 02:00N 27°16' W 117°08'5 0.4 1007.0 24.2
2015-Oct-04 14:00N 27°20' W 117°06'1 0.3 1006.0 24.2
2015-Oct-04 11:00N 27°21' W 117°06'5 0.4 1004.7 24.2
2015-Oct-03 20:00N 27°25' W 117°03'0 0.0 1006.2 24.3
2015-Oct-03 19:00N 27°25' W 117°03'0 0.0 1007.0 24.3
2015-Oct-03 14:00N 27°25' W 117°03'3 0.2 1006.9 24.2
2015-Oct-03 03:00N 27°28' W 117°02'0 0.0 1009.9 24.4
2015-Oct-03 02:00N 27°28' W 117°02'1 0.6 1009.7 24.4
2015-Oct-03 01:00N 27°28' W 117°03'6 0.8 1009.9 24.5
2015-Oct-02 17:00N 27°33' W 116°60'0 0.1 1013.0 24.4
2015-Oct-02 13:00N 27°33' W 116°60'5 0.3 1012.0 24.4
2015-Oct-01 23:00N 27°38' W 116°59'2 0.4 1011.5 24.7
2015-Oct-01 18:00N 27°40' W 116°59'0 0.0 1013.5 24.5
2015-Oct-01 17:00N 27°40' W 116°59'2 0.4 1013.5 24.4
2015-Oct-01 11:00N 27°43' W 116°59'2 2.4 1010.7 24.5
2015-Oct-01 10:00N 27°45' W 116°59'0 0.0 1010.9 24.5
2015-Oct-01 05:00N 27°45' W 116°59'12 0.6 1011.2 24.5
2015-Sep-30 10:00N 27°56' W 116°59'0 0.0 1010.0 24.5
2015-Sep-30 06:00N 27°56' W 116°59'2 0.4 1011.2 24.6
2015-Sep-30 02:00N 27°58' W 116°59'4 1.3 1010.2 24.6
2015-Sep-29 23:00N 28°02' W 116°58'0 0.0 1010.5 24.7
2015-Sep-29 18:00N 28°02' W 116°58'6 1.0 1013.0 24.6
2015-Sep-29 12:00N 28°08' W 116°58'0 0.0 1010.9 24.5
2015-Sep-29 10:00N 28°08' W 116°58'2 0.2 1011.0 24.5
2015-Sep-29 00:00N 28°10' W 116°58'4 0.5 1010.4 24.8
2015-Sep-28 15:00N 28°15' W 116°58'1 0.6 1011.5 24.5
2015-Sep-28 14:00N 28°15' W 116°58'2 0.4 1011.0 24.5
2015-Sep-28 10:00N 28°17' W 116°58'3 0.7 1009.7 24.5
2015-Sep-28 05:00N 28°20' W 116°57'0 0.0 1010.2 24.5
2015-Sep-28 03:00N 28°20' W 116°57'1 0.9 1009.4 24.6
2015-Sep-28 02:00N 28°21' W 116°57'0 0.0 1009.0 24.6
2015-Sep-28 01:00N 28°21' W 116°57'3 3.4 1008.7 24.7
2015-Sep-28 00:00N 28°24' W 116°57'0 0.0 1008.5 24.8
2015-Sep-27 23:00N 28°24' W 116°57'2 0.3 1009.0 24.9
2015-Sep-27 17:00N 28°26' W 116°56'1 0.2 1010.5 24.5
2015-Sep-27 12:00N 28°27' W 116°55'4 1.2 1008.7 24.5
2015-Sep-27 09:00N 28°30' W 116°55'1 0.1 1009.0 24.5
2015-Sep-27 03:00N 28°31' W 116°55'0 0.1 1008.5 24.6
2015-Sep-27 01:00N 28°31' W 116°55'1 1.2 1008.5 24.7
2015-Sep-27 00:00N 28°32' W 116°55'0 0.0 1008.5 24.7
2015-Sep-26 23:00N 28°32' W 116°55'0 0.1 1009.0 24.8
2015-Sep-26 20:00N 28°32' W 116°55'2 0.9 1010.9 24.7
2015-Sep-26 18:00N 28°34' W 116°54'0 0.0 1011.5 24.6
2015-Sep-26 17:00N 28°34' W 116°54'3 0.9 1011.4 24.6
2015-Sep-26 14:00N 28°36' W 116°52'0 0.1 1010.2 24.5
2015-Sep-26 13:00N 28°36' W 116°52'4 0.5 1009.7 24.5
2015-Sep-26 05:00N 28°40' W 116°52'   1011.0 24.6

Dump ship's entire track history